createdAt,value
2023-05-17T00:05:42.524Z,2.20
2023-05-17T00:12:25.108Z,1.88
2023-05-17T00:19:09.395Z,2.15
2023-05-17T00:25:51.842Z,2.50
2023-05-17T00:32:34.150Z,1.85
2023-05-17T00:39:16.537Z,2.03
2023-05-17T00:45:58.853Z,1.98
2023-05-17T00:52:41.502Z,1.88
2023-05-17T00:59:24.315Z,2.13
2023-05-17T01:06:07.026Z,2.00
2023-05-17T01:13:16.354Z,1.90
2023-05-17T01:20:24.442Z,2.17
2023-05-17T01:27:09.185Z,2.05
2023-05-17T01:33:51.707Z,2.03
2023-05-17T01:40:37.706Z,2.38
2023-05-17T01:47:41.674Z,2.03
2023-05-17T01:54:31.403Z,2.13
2023-05-17T02:01:16.142Z,2.35
2023-05-17T02:07:58.708Z,2.00
2023-05-17T02:14:41.404Z,2.08
2023-05-17T02:21:23.847Z,2.33
2023-05-17T02:28:06.394Z,2.53
2023-05-17T02:34:50.895Z,2.67
2023-05-17T02:41:33.186Z,2.42
2023-05-17T02:48:15.693Z,3.10
2023-05-17T02:54:58.390Z,2.20
2023-05-17T03:01:40.825Z,2.10
2023-05-17T03:08:23.205Z,2.30
2023-05-17T03:15:06.646Z,2.90
2023-05-17T03:21:49.337Z,2.22
2023-05-17T03:28:31.862Z,2.58
2023-05-17T03:35:16.092Z,3.42
2023-05-17T03:42:02.313Z,3.42
2023-05-17T03:48:47.571Z,2.75
2023-05-17T03:55:30.466Z,2.50
2023-05-17T04:02:15.588Z,2.80
2023-05-17T04:08:59.652Z,3.55
2023-05-17T04:15:42.070Z,2.65
2023-05-17T04:22:24.801Z,2.20
2023-05-17T04:29:07.940Z,3.17
2023-05-17T04:35:54.413Z,2.85
2023-05-17T04:42:37.528Z,2.30
2023-05-17T04:49:20.762Z,2.45
2023-05-17T04:56:04.117Z,2.40
2023-05-17T05:02:46.969Z,2.53
2023-05-17T05:09:29.922Z,2.70
2023-05-17T05:16:12.419Z,2.90
2023-05-17T05:22:54.998Z,2.08
2023-05-17T05:29:37.576Z,2.65
2023-05-17T05:36:19.966Z,2.33
2023-05-17T05:43:03.194Z,2.40
2023-05-17T05:49:47.495Z,2.35
2023-05-17T05:56:29.972Z,2.50
2023-05-17T06:03:13.935Z,2.60
2023-05-17T06:09:56.295Z,2.40
2023-05-17T06:16:38.779Z,2.38
2023-05-17T06:23:21.132Z,2.20
2023-05-17T06:30:07.525Z,2.40
2023-05-17T06:36:49.944Z,2.35
2023-05-17T06:43:32.277Z,2.58
2023-05-17T06:50:14.792Z,2.63
2023-05-17T06:57:03.926Z,2.80
2023-05-17T07:03:46.407Z,2.88
2023-05-17T07:10:28.874Z,2.55
2023-05-17T07:17:11.799Z,3.03
2023-05-17T07:23:54.184Z,3.22
2023-05-17T07:30:36.544Z,3.42
2023-05-17T07:37:18.963Z,2.78
2023-05-17T07:44:01.352Z,3.65
2023-05-17T07:50:44.502Z,3.50
2023-05-17T07:57:27.358Z,3.05
2023-05-17T08:04:09.728Z,3.97
2023-05-17T08:10:52.256Z,3.50
2023-05-17T08:17:34.896Z,3.33
2023-05-17T08:24:17.768Z,3.78
2023-05-17T08:31:00.144Z,3.42
2023-05-17T08:37:43.016Z,3.30
2023-05-17T08:44:28.361Z,3.67
2023-05-17T08:51:12.124Z,3.60
2023-05-17T08:57:55.074Z,3.45
2023-05-17T09:04:37.511Z,3.50
2023-05-17T09:11:33.059Z,3.17
2023-05-17T09:18:18.607Z,3.38
2023-05-17T09:25:04.584Z,3.28
2023-05-17T09:31:46.987Z,3.47
2023-05-17T09:38:30.170Z,3.15
2023-05-17T09:45:14.537Z,3.60
2023-05-17T09:51:57.008Z,3.85
2023-05-17T09:58:39.383Z,3.85
2023-05-17T10:05:22.624Z,4.25
2023-05-17T10:12:07.920Z,3.88
2023-05-17T10:18:50.468Z,3.20
2023-05-17T10:25:33.151Z,3.20
2023-05-17T10:32:17.272Z,3.60
2023-05-17T10:39:00.650Z,3.88
2023-05-17T10:45:43.378Z,3.08
2023-05-17T10:52:26.019Z,3.60
2023-05-17T10:59:29.722Z,3.78
2023-05-17T11:06:23.452Z,3.35
2023-05-17T11:13:23.176Z,3.75
2023-05-17T11:20:16.577Z,3.40
2023-05-17T11:27:00.874Z,3.33
2023-05-17T11:33:45.114Z,3.15
2023-05-17T11:40:28.358Z,3.30
2023-05-17T11:47:11.325Z,2.80
2023-05-17T11:53:57.776Z,3.28
2023-05-17T12:00:41.920Z,3.28
2023-05-17T12:07:25.809Z,3.08
2023-05-17T12:14:08.281Z,3.28
2023-05-17T12:20:57.735Z,3.40
2023-05-17T12:27:40.097Z,3.00
2023-05-17T12:34:23.347Z,3.35
2023-05-17T12:41:08.269Z,3.42
2023-05-17T12:47:51.141Z,2.85
2023-05-17T12:54:33.560Z,3.33
2023-05-17T13:01:15.913Z,3.30
2023-05-17T13:08:18.203Z,3.20
2023-05-17T13:15:00.626Z,3.22
2023-05-17T13:21:43.063Z,3.50
2023-05-17T13:28:26.309Z,3.92
2023-05-17T13:35:09.208Z,3.47
2023-05-17T13:41:52.400Z,3.50
2023-05-17T13:48:34.909Z,3.00
2023-05-17T13:55:17.551Z,3.60
2023-05-17T14:01:59.869Z,3.40
2023-05-17T14:08:42.506Z,3.25
2023-05-17T14:15:25.671Z,3.60
2023-05-17T14:22:08.838Z,3.25
2023-05-17T14:28:51.342Z,3.40
2023-05-17T14:35:33.744Z,3.60
2023-05-17T14:42:16.114Z,3.33
2023-05-17T14:48:58.723Z,2.92
2023-05-17T14:55:41.769Z,3.40
2023-05-17T15:02:24.086Z,3.35
2023-05-17T15:09:06.683Z,3.72
2023-05-17T15:15:49.480Z,3.75
2023-05-17T15:22:31.783Z,3.78
2023-05-17T15:29:14.321Z,3.70
2023-05-17T15:35:56.711Z,3.42
2023-05-17T15:42:39.224Z,3.47
2023-05-17T15:49:21.617Z,3.95
2023-05-17T15:56:04.660Z,2.97
2023-05-17T16:02:47.011Z,3.42
2023-05-17T16:09:29.374Z,3.42
2023-05-17T16:16:13.365Z,2.92
2023-05-17T16:22:56.151Z,3.13
2023-05-17T16:29:40.330Z,3.47
2023-05-17T16:36:23.551Z,3.20
2023-05-17T16:43:06.914Z,3.20
2023-05-17T16:49:49.552Z,3.22
2023-05-17T16:56:32.120Z,3.42
2023-05-17T17:03:14.478Z,3.42
2023-05-17T17:09:56.810Z,3.40
2023-05-17T17:16:39.179Z,3.60
2023-05-17T17:23:21.937Z,3.63
2023-05-17T17:30:04.924Z,3.40
2023-05-17T17:36:47.279Z,3.50
2023-05-17T17:43:29.599Z,3.92
2023-05-17T17:50:12.039Z,3.70
2023-05-17T17:56:54.629Z,3.30
2023-05-17T18:03:36.989Z,3.08
2023-05-17T18:10:19.489Z,3.50
2023-05-17T18:17:02.351Z,3.20
2023-05-17T18:23:44.905Z,3.75
2023-05-17T18:30:27.388Z,3.58
2023-05-17T18:37:09.962Z,3.90
2023-05-17T18:43:52.633Z,3.88
2023-05-17T18:50:35.032Z,3.42
2023-05-17T18:57:17.530Z,3.70
2023-05-17T19:03:59.910Z,3.95
2023-05-17T19:10:42.484Z,4.10
2023-05-17T19:17:25.200Z,3.58
2023-05-17T19:24:07.789Z,3.80
2023-05-17T19:30:50.424Z,3.47
2023-05-17T19:37:33.976Z,4.07
2023-05-17T19:44:16.423Z,4.15
2023-05-17T19:50:58.820Z,4.60
2023-05-17T19:57:42.512Z,4.25
2023-05-17T20:04:24.857Z,3.63
2023-05-17T20:11:07.515Z,4.20
2023-05-17T20:17:49.923Z,3.90
2023-05-17T20:24:34.706Z,4.15
2023-05-17T20:31:17.276Z,4.35
2023-05-17T20:37:59.998Z,6.93
2023-05-17T20:44:43.274Z,6.68
2023-05-17T20:51:26.960Z,7.10
2023-05-17T20:58:09.537Z,8.73
2023-05-17T21:04:52.690Z,8.02
2023-05-17T21:11:35.079Z,5.13
2023-05-17T21:18:17.630Z,6.72
2023-05-17T21:24:59.942Z,5.82
2023-05-17T21:31:42.352Z,5.18
2023-05-17T21:38:25.265Z,4.95
2023-05-17T21:45:08.395Z,5.70
2023-05-17T21:51:50.931Z,5.57
2023-05-17T21:58:33.587Z,6.10
2023-05-17T22:05:16.237Z,6.07
2023-05-17T22:11:59.552Z,6.63
2023-05-17T22:18:42.053Z,5.72
2023-05-17T22:25:24.475Z,8.82
2023-05-17T22:32:07.729Z,7.18
2023-05-17T22:38:50.788Z,6.22
2023-05-17T22:45:34.639Z,6.55
2023-05-17T22:52:18.670Z,7.03
2023-05-17T22:59:01.088Z,9.15
2023-05-17T23:05:45.732Z,7.00
2023-05-17T23:12:28.191Z,7.50
2023-05-17T23:19:10.691Z,8.20
2023-05-17T23:25:56.361Z,8.38
2023-05-17T23:32:39.258Z,7.78
2023-05-17T23:39:21.921Z,8.48
2023-05-17T23:46:05.395Z,8.23
2023-05-17T23:52:48.074Z,7.90
2023-05-17T23:59:32.598Z,7.53
